Ocean City, NJ

8:59 PM EST on December 25, 2014 (GMT -0500)
Ocean City NJ | Change Station
CLOSE
Current Station
Personal Weather Station
Location: Ocean City, NJ
Elevation: 23 ft
Nearby Weather Stations

Elev 23 ft 39.28 °N, 74.57 °W | Updated 9 seconds ago

Clear
Clear
46.8 °F
Feels Like 47 °F
N
2.5
Wind Variable Wind from NNE
Gusts 4.9 mph

Today
High -- | Low -- °F
--% Chance of Precip.
Yesterday
High -- | Low -- °F
Precip. -- in
7:16 AM 4:40 PM
Waxing Crescent, 21% visible
Pressure 30.14 in
Visibility 10.0 miles
Clouds Clear
Windchill 47 °F
Dew Point 34 °F
Humidity 61%
Rainfall 0.05 in
Snow Depth Not available.
UV 0 out of 12
Pollen .10 out of 12
Air Quality Not available.
Flu Activity Not available.
METAR KACY 260154Z 27005KT 10SM CLR 06/M01 A3013 RMK AO2 SLP204 T00561006

More Conditions Fewer Conditions

Pressure 30.14 in
Visibility 10.0 miles
Clouds Clear
Windchill 47 °F
Dew Point 34 °F
Humidity 61%
Rainfall 0.05 in
Snow Depth Not available.
UV 0 out of 12
Pollen .10 out of 12
Air Quality Not available.
Flu Activity Not available.
METAR KACY 260154Z 27005KT 10SM CLR 06/M01 A3013 RMK AO2 SLP204 T00561006

More Conditions Fewer Conditions

10-Day Weather Forecast

Almanac

Astronomy

Dec. 25, 2014 Rise Set
Actual Time
Civil Twilight
Nautical Twilight
Astronomical Twilight
Moon
Length of Visible Light
Length of Day
Tomorrow will be .
, % of the Moon is Illuminated

Today's Extremes

State Highs State Lows

Community

WunderPhotos

Upload Photos

1,780,495 photos uploaded!

WunderBlogs® & News

Nearby

Air Quality

  Air Quality AQ Index Pollutant
Not available.

Snow Depth

Station Depth Elevation

Earthquake Activity

City Distance Mag. Time & Date
Minimum magnitude displayed is 2.5.

Coastal Water Temperatures

Place Temperature

Nearby Weather Stations